createdAt,value
2016-12-28T00:00:09.189Z,23
2016-12-28T00:02:09.561Z,23
2016-12-28T00:04:09.921Z,24
2016-12-28T00:06:06.686Z,22
2016-12-28T00:08:06.675Z,24
2016-12-28T00:10:07.443Z,23
2016-12-28T00:12:07.178Z,24
2016-12-28T00:14:09.884Z,23
2016-12-28T00:16:06.565Z,22
2016-12-28T00:18:06.563Z,24
2016-12-28T00:20:07.679Z,23
2016-12-28T00:22:14.995Z,23
2016-12-28T00:24:09.541Z,23
2016-12-28T00:26:07.392Z,22
2016-12-28T00:28:07.111Z,23
2016-12-28T00:30:06.820Z,23
2016-12-28T00:32:06.866Z,23
2016-12-28T00:34:06.583Z,23
2016-12-28T00:36:07.429Z,22
2016-12-28T00:38:07.533Z,23
2016-12-28T00:40:07.380Z,23
2016-12-28T00:42:07.116Z,23
2016-12-28T00:44:09.478Z,23
2016-12-28T00:46:09.884Z,23
2016-12-28T00:48:09.180Z,22
2016-12-28T00:50:07.214Z,22
2016-12-28T00:52:06.873Z,22
2016-12-28T00:54:09.139Z,22
2016-12-28T00:56:07.221Z,22
2016-12-28T00:58:09.485Z,22
2016-12-28T01:00:09.721Z,22
2016-12-28T01:02:06.757Z,22
2016-12-28T01:04:06.470Z,22
2016-12-28T01:06:07.292Z,22
2016-12-28T01:08:09.560Z,22
2016-12-28T01:10:07.509Z,22
2016-12-28T01:12:07.340Z,22
2016-12-28T01:14:12.268Z,22
2016-12-28T01:16:09.497Z,22
2016-12-28T01:18:11.528Z,22
2016-12-28T01:20:09.935Z,22
2016-12-28T01:22:06.620Z,22
2016-12-28T01:24:07.438Z,22
2016-12-28T01:26:07.540Z,22
2016-12-28T01:28:10.084Z,22
2016-12-28T01:30:09.316Z,22
2016-12-28T01:32:07.336Z,22
2016-12-28T01:34:09.546Z,22
2016-12-28T01:36:07.285Z,22
2016-12-28T01:38:06.994Z,21
2016-12-28T01:40:06.771Z,22
2016-12-28T01:42:06.516Z,22
2016-12-28T01:44:07.564Z,22
2016-12-28T01:46:14.817Z,22
2016-12-28T01:48:06.545Z,22
2016-12-28T01:50:14.983Z,21
2016-12-28T01:52:06.736Z,22
2016-12-28T01:54:09.041Z,22
2016-12-28T01:56:09.547Z,22
2016-12-28T01:58:09.783Z,21
2016-12-28T02:00:06.723Z,21
2016-12-28T02:02:06.799Z,22
2016-12-28T02:04:06.533Z,22
2016-12-28T02:06:07.299Z,22
2016-12-28T02:08:09.734Z,21
2016-12-28T02:10:09.033Z,21
2016-12-28T02:12:06.776Z,21
2016-12-28T02:14:09.036Z,21
2016-12-28T02:16:07.060Z,21
2016-12-28T02:18:09.499Z,22
2016-12-28T02:20:07.569Z,22
2016-12-28T02:22:07.265Z,22
2016-12-28T02:24:09.527Z,21
2016-12-28T02:26:10.123Z,21
2016-12-28T02:28:06.801Z,21
2016-12-28T02:30:06.535Z,21
2016-12-28T02:32:17.554Z,21
2016-12-28T02:34:07.273Z,21
2016-12-28T02:36:07.077Z,22
2016-12-28T02:38:06.952Z,21
2016-12-28T02:40:06.674Z,21
2016-12-28T02:42:07.454Z,21
2016-12-28T02:44:07.340Z,21
2016-12-28T02:46:14.629Z,21
2016-12-28T02:48:07.467Z,21
2016-12-28T02:50:10.115Z,21
2016-12-28T02:52:09.402Z,21
2016-12-28T02:54:07.054Z,21
2016-12-28T02:56:09.426Z,21
2016-12-28T02:58:09.643Z,21
2016-12-28T03:00:07.391Z,21
2016-12-28T03:02:19.891Z,21
2016-12-28T03:04:09.541Z,21
2016-12-28T03:06:07.241Z,21
2016-12-28T03:08:14.542Z,21
2016-12-28T03:10:14.825Z,21
2016-12-28T03:12:06.558Z,21
2016-12-28T03:14:07.590Z,21
2016-12-28T03:16:09.829Z,21
2016-12-28T03:18:06.802Z,21
2016-12-28T03:20:06.604Z,21
2016-12-28T03:22:07.313Z,21
2016-12-28T03:24:09.503Z,21
2016-12-28T03:26:12.384Z,21
2016-12-28T03:28:07.139Z,21
2016-12-28T03:30:09.355Z,21
2016-12-28T03:32:07.294Z,21
2016-12-28T03:34:06.984Z,21
2016-12-28T03:36:07.169Z,21
2016-12-28T03:38:07.170Z,21
2016-12-28T03:40:06.833Z,21
2016-12-28T03:42:11.558Z,21
2016-12-28T03:44:07.634Z,21
2016-12-28T03:46:14.935Z,21
2016-12-28T03:48:09.176Z,21
2016-12-28T03:50:07.234Z,21
2016-12-28T03:52:09.854Z,21
2016-12-28T03:54:06.601Z,21
2016-12-28T03:56:07.358Z,21
2016-12-28T03:58:07.099Z,21
2016-12-28T04:00:09.350Z,21
2016-12-28T04:02:19.800Z,21
2016-12-28T04:04:06.483Z,21
2016-12-28T04:06:07.199Z,21
2016-12-28T04:08:07.255Z,21
2016-12-28T04:10:09.470Z,21
2016-12-28T04:12:07.233Z,21
2016-12-28T04:14:09.585Z,21
2016-12-28T04:16:09.821Z,21
2016-12-28T04:18:06.740Z,21
2016-12-28T04:20:06.862Z,21
2016-12-28T04:22:06.597Z,21
2016-12-28T04:24:10.194Z,21
2016-12-28T04:26:07.130Z,21
2016-12-28T04:28:06.862Z,21
2016-12-28T04:30:06.523Z,21
2016-12-28T04:32:10.150Z,21
2016-12-28T04:34:06.823Z,21
2016-12-28T04:36:11.574Z,21
2016-12-28T04:38:12.727Z,21
2016-12-28T04:40:06.485Z,21
2016-12-28T04:42:07.294Z,21
2016-12-28T04:44:09.996Z,21
2016-12-28T04:46:06.748Z,21
2016-12-28T04:48:06.505Z,21
2016-12-28T04:50:07.335Z,21
2016-12-28T04:52:06.984Z,21
2016-12-28T04:54:09.226Z,21
2016-12-28T04:56:07.273Z,21
2016-12-28T04:58:06.972Z,21
2016-12-28T05:00:09.240Z,21
2016-12-28T05:02:07.011Z,21
2016-12-28T05:04:06.690Z,21
2016-12-28T05:06:08.902Z,21
2016-12-28T05:08:06.768Z,21
2016-12-28T05:10:06.467Z,21
2016-12-28T05:12:12.378Z,21
2016-12-28T05:14:07.220Z,21
2016-12-28T05:16:06.914Z,21
2016-12-28T05:18:09.327Z,21
2016-12-28T05:20:09.970Z,22
2016-12-28T05:22:06.644Z,22
2016-12-28T05:24:07.305Z,21
2016-12-28T05:26:06.981Z,21
2016-12-28T05:28:06.771Z,21
2016-12-28T05:30:16.583Z,21
2016-12-28T05:32:07.405Z,21
2016-12-28T05:34:09.669Z,21
2016-12-28T05:36:14.983Z,21
2016-12-28T05:38:09.523Z,21
2016-12-28T05:40:07.198Z,21
2016-12-28T05:42:06.925Z,21
2016-12-28T05:44:09.150Z,21
2016-12-28T05:46:06.913Z,21
2016-12-28T05:48:14.191Z,21
2016-12-28T05:50:09.772Z,21
2016-12-28T05:52:16.601Z,21
2016-12-28T05:54:07.325Z,21
2016-12-28T05:56:07.244Z,21
2016-12-28T05:58:06.972Z,21
2016-12-28T06:00:07.282Z,21
2016-12-28T06:02:07.301Z,21
2016-12-28T06:04:07.064Z,21
2016-12-28T06:06:06.778Z,21
2016-12-28T06:08:09.146Z,21
2016-12-28T06:10:06.819Z,21
2016-12-28T06:12:06.611Z,21
2016-12-28T06:14:09.923Z,21
2016-12-28T06:16:06.768Z,21
2016-12-28T06:18:09.191Z,21
2016-12-28T06:20:09.431Z,21
2016-12-28T06:22:19.796Z,21
2016-12-28T06:24:16.660Z,21
2016-12-28T06:26:07.539Z,21
2016-12-28T06:28:17.365Z,21
2016-12-28T06:30:07.099Z,21
2016-12-28T06:32:06.899Z,21
2016-12-28T06:34:06.650Z,21
2016-12-28T06:36:07.396Z,21
2016-12-28T06:38:14.700Z,21
2016-12-28T06:40:08.994Z,21
2016-12-28T06:42:06.675Z,21
2016-12-28T06:44:07.741Z,21
2016-12-28T06:46:11.549Z,21
2016-12-28T06:48:07.584Z,21
2016-12-28T06:50:09.795Z,21
2016-12-28T06:52:09.022Z,21
2016-12-28T06:54:06.727Z,21
2016-12-28T06:56:06.815Z,21
2016-12-28T06:58:06.587Z,21
2016-12-28T07:00:07.290Z,21
2016-12-28T07:02:07.393Z,21
2016-12-28T07:04:09.980Z,21
2016-12-28T07:06:06.672Z,21
2016-12-28T07:08:07.352Z,21
2016-12-28T07:10:09.582Z,21
2016-12-28T07:12:07.287Z,21
2016-12-28T07:14:07.069Z,21
2016-12-28T07:16:06.742Z,21
2016-12-28T07:18:06.678Z,21
2016-12-28T07:20:07.783Z,21
2016-12-28T07:22:06.521Z,21
2016-12-28T07:24:09.752Z,21
2016-12-28T07:26:06.807Z,21
2016-12-28T07:28:06.566Z,21
2016-12-28T07:30:12.461Z,21
2016-12-28T07:32:07.289Z,21
2016-12-28T07:34:07.040Z,21
2016-12-28T07:36:06.931Z,21
2016-12-28T07:38:14.337Z,21
2016-12-28T07:40:07.056Z,21
2016-12-28T07:42:09.331Z,21
2016-12-28T07:44:07.136Z,21
2016-12-28T07:46:11.900Z,21
2016-12-28T07:48:06.588Z,21
2016-12-28T07:50:10.182Z,21
2016-12-28T07:52:10.995Z,21
2016-12-28T07:54:06.673Z,21
2016-12-28T07:56:07.399Z,21
2016-12-28T07:58:09.628Z,21
2016-12-28T08:00:07.471Z,21
2016-12-28T08:02:07.388Z,21
2016-12-28T08:04:09.667Z,21
2016-12-28T08:06:07.380Z,21
2016-12-28T08:08:07.208Z,21
2016-12-28T08:10:06.928Z,21
2016-12-28T08:12:06.673Z,21
2016-12-28T08:14:07.802Z,21
2016-12-28T08:16:06.507Z,21
2016-12-28T08:18:06.445Z,21
2016-12-28T08:20:10.012Z,21
2016-12-28T08:22:06.714Z,21
2016-12-28T08:24:09.314Z,21
2016-12-28T08:26:07.317Z,21
2016-12-28T08:28:09.541Z,21
2016-12-28T08:30:07.280Z,21
2016-12-28T08:32:07.172Z,21
2016-12-28T08:34:17.048Z,21
2016-12-28T08:36:09.284Z,21
2016-12-28T08:38:11.992Z,21
2016-12-28T08:40:14.394Z,21
2016-12-28T08:42:07.113Z,21
2016-12-28T08:44:09.693Z,21
2016-12-28T08:46:08.940Z,21
2016-12-28T08:48:06.735Z,21
2016-12-28T08:50:06.881Z,21
2016-12-28T08:52:06.737Z,21
2016-12-28T08:54:16.529Z,21
2016-12-28T08:56:07.446Z,21
2016-12-28T08:58:07.156Z,21
2016-12-28T09:00:06.864Z,21
2016-12-28T09:02:09.287Z,21
2016-12-28T09:04:07.081Z,21
2016-12-28T09:06:06.749Z,21
2016-12-28T09:08:06.854Z,21
2016-12-28T09:10:11.592Z,21
2016-12-28T09:12:07.494Z,21
2016-12-28T09:14:07.527Z,21
2016-12-28T09:16:09.765Z,21
2016-12-28T09:18:06.654Z,21
2016-12-28T09:20:07.533Z,21
2016-12-28T09:22:07.286Z,21
2016-12-28T09:24:06.954Z,21
2016-12-28T09:26:12.113Z,21
2016-12-28T09:28:07.015Z,21
2016-12-28T09:30:06.729Z,21
2016-12-28T09:32:06.576Z,21
2016-12-28T09:34:09.796Z,21
2016-12-28T09:36:06.478Z,22
2016-12-28T09:38:14.847Z,21
2016-12-28T09:40:06.575Z,21
2016-12-28T09:42:09.773Z,22
2016-12-28T09:44:06.830Z,22
2016-12-28T09:46:06.494Z,22
2016-12-28T09:48:09.760Z,22
2016-12-28T09:50:06.536Z,21
2016-12-28T09:52:09.770Z,22
2016-12-28T09:54:09.038Z,22
2016-12-28T09:56:16.941Z,22
2016-12-28T09:58:07.621Z,21
2016-12-28T10:00:12.558Z,22
2016-12-28T10:02:09.801Z,22
2016-12-28T10:04:21.744Z,21
2016-12-28T10:06:06.683Z,21
2016-12-28T10:08:06.725Z,22
2016-12-28T10:10:08.961Z,22
2016-12-28T10:12:09.262Z,22
2016-12-28T10:14:07.387Z,21
2016-12-28T10:16:08.464Z,22
2016-12-28T10:18:11.635Z,22
2016-12-28T10:20:07.530Z,22
2016-12-28T10:22:09.945Z,22
2016-12-28T10:24:06.643Z,22
2016-12-28T10:26:07.551Z,22
2016-12-28T10:28:07.281Z,22
2016-12-28T10:30:10.495Z,22
2016-12-28T10:32:12.400Z,21
2016-12-28T10:34:07.076Z,21
2016-12-28T10:36:06.792Z,22
2016-12-28T10:38:09.036Z,22
2016-12-28T10:40:06.765Z,21
2016-12-28T10:42:07.451Z,21
2016-12-28T10:44:07.501Z,22
2016-12-28T10:46:07.198Z,22
2016-12-28T10:48:08.196Z,22
2016-12-28T10:50:07.928Z,22
2016-12-28T10:52:06.883Z,22
2016-12-28T10:54:06.569Z,22
2016-12-28T10:56:07.315Z,23
2016-12-28T10:58:07.017Z,22
2016-12-28T11:00:06.787Z,23
2016-12-28T11:02:14.214Z,23
2016-12-28T11:04:09.577Z,24
2016-12-28T11:06:07.300Z,22
2016-12-28T11:08:07.206Z,24
2016-12-28T11:10:06.924Z,24
2016-12-28T11:12:06.712Z,24
2016-12-28T11:14:06.431Z,24
2016-12-28T11:16:07.200Z,24
2016-12-28T11:18:07.054Z,24
2016-12-28T11:20:06.924Z,25
2016-12-28T11:22:06.641Z,25
2016-12-28T11:24:07.414Z,24
2016-12-28T11:26:09.771Z,24
2016-12-28T11:28:06.548Z,24
2016-12-28T11:30:07.496Z,24
2016-12-28T11:32:09.889Z,24
2016-12-28T11:34:06.581Z,23
2016-12-28T11:36:09.894Z,24
2016-12-28T11:38:06.624Z,24
2016-12-28T11:40:07.350Z,24
2016-12-28T11:42:07.255Z,24
2016-12-28T11:44:07.279Z,24
2016-12-28T11:46:07.026Z,24
2016-12-28T11:48:06.772Z,23
2016-12-28T11:50:06.594Z,24
2016-12-28T11:52:07.340Z,24
2016-12-28T11:54:09.544Z,23
2016-12-28T11:56:07.469Z,22
2016-12-28T11:58:07.176Z,24
2016-12-28T12:00:09.413Z,24
2016-12-28T12:02:07.230Z,22
2016-12-28T12:04:09.664Z,22
2016-12-28T12:06:07.356Z,21
2016-12-28T12:08:07.370Z,21
2016-12-28T12:10:19.789Z,21
2016-12-28T12:12:06.530Z,21
2016-12-28T12:14:10.092Z,21
2016-12-28T12:16:07.775Z,21
2016-12-28T12:18:09.198Z,21
2016-12-28T12:20:07.077Z,21
2016-12-28T12:22:07.793Z,21
2016-12-28T12:24:06.622Z,22
2016-12-28T12:26:07.424Z,22
2016-12-28T12:28:09.689Z,22
2016-12-28T12:30:06.364Z,21
2016-12-28T12:32:07.370Z,22
2016-12-28T12:34:09.631Z,22
2016-12-28T12:36:07.299Z,22
2016-12-28T12:38:07.092Z,22
2016-12-28T12:40:06.766Z,23
2016-12-28T12:42:14.096Z,23
2016-12-28T12:44:07.115Z,22
2016-12-28T12:46:06.859Z,23
2016-12-28T12:48:09.175Z,23
2016-12-28T12:50:09.386Z,22
2016-12-28T12:52:07.079Z,22
2016-12-28T12:54:06.791Z,22
2016-12-28T12:56:09.215Z,22
2016-12-28T12:58:09.404Z,22
2016-12-28T13:00:09.678Z,21
2016-12-28T13:02:15.373Z,21
2016-12-28T13:04:07.098Z,21
2016-12-28T13:06:07.860Z,23
2016-12-28T13:08:06.572Z,22
2016-12-28T13:10:09.800Z,22
2016-12-28T13:12:06.478Z,22
2016-12-28T13:14:15.152Z,22
2016-12-28T13:16:06.903Z,22
2016-12-28T13:18:06.844Z,22
2016-12-28T13:20:19.633Z,21
2016-12-28T13:22:07.398Z,21
2016-12-28T13:24:09.660Z,22
2016-12-28T13:26:10.069Z,21
2016-12-28T13:28:06.950Z,22
2016-12-28T13:30:16.796Z,22
2016-12-28T13:32:06.667Z,21
2016-12-28T13:34:09.937Z,22
2016-12-28T13:36:09.166Z,22
2016-12-28T13:38:11.935Z,22
2016-12-28T13:40:06.634Z,21
2016-12-28T13:42:07.421Z,21
2016-12-28T13:44:12.551Z,21
2016-12-28T13:46:07.343Z,21
2016-12-28T13:48:12.103Z,22
2016-12-28T13:50:07.359Z,22
2016-12-28T13:52:07.049Z,21
2016-12-28T13:54:14.370Z,21
2016-12-28T13:56:07.242Z,21
2016-12-28T13:58:07.187Z,21
2016-12-28T14:00:06.952Z,22
2016-12-28T14:02:06.659Z,22
2016-12-28T14:04:09.902Z,22
2016-12-28T14:06:06.651Z,21
2016-12-28T14:08:07.548Z,21
2016-12-28T14:10:07.263Z,21
2016-12-28T14:12:12.128Z,21
2016-12-28T14:14:06.971Z,21
2016-12-28T14:16:11.827Z,21
2016-12-28T14:18:06.760Z,21
2016-12-28T14:20:16.900Z,21
2016-12-28T14:22:06.727Z,21
2016-12-28T14:24:06.694Z,21
2016-12-28T14:26:11.144Z,21
2016-12-28T14:28:06.897Z,21
2016-12-28T14:30:06.656Z,21
2016-12-28T14:32:07.722Z,21
2016-12-28T14:34:06.436Z,22
2016-12-28T14:36:09.709Z,23
2016-12-28T14:38:08.970Z,24
2016-12-28T14:40:16.858Z,22
2016-12-28T14:42:06.501Z,22
2016-12-28T14:44:07.332Z,24
2016-12-28T14:46:14.606Z,24
2016-12-28T14:48:07.631Z,24
2016-12-28T14:50:07.654Z,24
2016-12-28T14:52:07.374Z,25
2016-12-28T14:54:07.067Z,24
2016-12-28T14:56:06.950Z,25
2016-12-28T14:58:06.718Z,24
2016-12-28T15:00:06.428Z,24
2016-12-28T15:02:07.301Z,24
2016-12-28T15:04:07.220Z,24
2016-12-28T15:06:09.606Z,26
2016-12-28T15:08:10.069Z,24
2016-12-28T15:10:06.725Z,26
2016-12-28T15:12:09.034Z,26
2016-12-28T15:14:06.861Z,27
2016-12-28T15:16:08.286Z,26
2016-12-28T15:18:09.681Z,27
2016-12-28T15:20:11.519Z,27
2016-12-28T15:22:09.783Z,29
2016-12-28T15:24:14.047Z,26
2016-12-28T15:26:06.853Z,31
2016-12-28T15:28:09.080Z,31
2016-12-28T15:30:09.336Z,31
2016-12-28T15:32:07.214Z,31
2016-12-28T15:34:06.937Z,31
2016-12-28T15:36:09.404Z,31
2016-12-28T15:38:09.772Z,31
2016-12-28T15:40:06.542Z,30
2016-12-28T15:42:14.926Z,30
2016-12-28T15:44:07.034Z,30
2016-12-28T15:46:06.730Z,31
2016-12-28T15:48:06.394Z,31
2016-12-28T15:50:10.007Z,31
2016-12-28T15:52:09.377Z,29
2016-12-28T15:54:07.120Z,31
2016-12-28T15:56:06.922Z,29
2016-12-28T15:58:11.667Z,29
2016-12-28T16:00:09.881Z,27
2016-12-28T16:02:06.915Z,31
2016-12-28T16:04:06.658Z,29
2016-12-28T16:06:14.943Z,26
2016-12-28T16:08:08.005Z,26
2016-12-28T16:10:11.784Z,26
2016-12-28T16:12:06.501Z,26
2016-12-28T16:14:09.953Z,27
2016-12-28T16:16:06.638Z,27
2016-12-28T16:18:06.546Z,27
2016-12-28T16:20:12.642Z,27
2016-12-28T16:22:07.403Z,27
2016-12-28T16:24:07.334Z,27
2016-12-28T16:26:08.109Z,27
2016-12-28T16:28:06.878Z,26
2016-12-28T16:30:06.563Z,26
2016-12-28T16:32:09.938Z,26
2016-12-28T16:34:06.666Z,26
2016-12-28T16:36:09.973Z,26
2016-12-28T16:38:06.918Z,26
2016-12-28T16:40:06.692Z,26
2016-12-28T16:42:06.410Z,26
2016-12-28T16:44:07.147Z,26
2016-12-28T16:46:06.866Z,26
2016-12-28T16:48:06.823Z,26
2016-12-28T16:50:06.664Z,27
2016-12-28T16:52:09.974Z,26
2016-12-28T16:54:07.101Z,26
2016-12-28T16:56:07.203Z,26
2016-12-28T16:58:07.307Z,27
2016-12-28T17:00:07.305Z,27
2016-12-28T17:02:07.136Z,27
2016-12-28T17:04:06.906Z,27
2016-12-28T17:06:09.160Z,26
2016-12-28T17:08:12.279Z,26
2016-12-28T17:10:06.999Z,27
2016-12-28T17:12:09.585Z,26
2016-12-28T17:14:07.291Z,25
2016-12-28T17:16:09.528Z,27
2016-12-28T17:18:06.381Z,27
2016-12-28T17:20:17.494Z,27
2016-12-28T17:22:07.184Z,25
2016-12-28T17:24:09.430Z,26
2016-12-28T17:26:12.541Z,26
2016-12-28T17:28:07.566Z,24
2016-12-28T17:30:12.420Z,27
2016-12-28T17:32:07.464Z,24
2016-12-28T17:34:07.218Z,27
2016-12-28T17:36:09.517Z,25
2016-12-28T17:38:09.884Z,24
2016-12-28T17:40:09.334Z,26
2016-12-28T17:42:07.102Z,27
2016-12-28T17:44:09.689Z,26
2016-12-28T17:46:06.472Z,26
2016-12-28T17:48:09.673Z,25
2016-12-28T17:50:09.901Z,25
2016-12-28T17:52:06.633Z,25
2016-12-28T17:54:14.932Z,25
2016-12-28T17:56:06.784Z,24
2016-12-28T17:58:06.512Z,27
2016-12-28T18:00:07.513Z,26
2016-12-28T18:02:09.967Z,26
2016-12-28T18:04:06.685Z,24
2016-12-28T18:06:06.390Z,26
2016-12-28T18:08:07.396Z,25
2016-12-28T18:10:07.098Z,25
2016-12-28T18:12:06.823Z,26
2016-12-28T18:14:06.655Z,26
2016-12-28T18:16:10.052Z,27
2016-12-28T18:18:14.545Z,24
2016-12-28T18:20:07.639Z,23
2016-12-28T18:22:07.345Z,26
2016-12-28T18:24:09.558Z,26
2016-12-28T18:26:07.616Z,26
2016-12-28T18:28:09.810Z,26
2016-12-28T18:30:09.100Z,24
2016-12-28T18:32:07.299Z,26
2016-12-28T18:34:07.180Z,25
2016-12-28T18:36:07.047Z,26
2016-12-28T18:38:09.703Z,26
2016-12-28T18:40:06.413Z,24
2016-12-28T18:42:07.169Z,25
2016-12-28T18:44:06.987Z,25
2016-12-28T18:46:06.717Z,26
2016-12-28T18:48:09.161Z,26
2016-12-28T18:50:07.271Z,24
2016-12-28T18:52:07.128Z,26
2016-12-28T18:54:09.507Z,25
2016-12-28T18:56:10.231Z,26
2016-12-28T18:58:11.957Z,24
2016-12-28T19:00:06.773Z,24
2016-12-28T19:02:16.763Z,24
2016-12-28T19:04:06.775Z,24
2016-12-28T19:06:06.636Z,27
2016-12-28T19:08:12.729Z,24
2016-12-28T19:10:06.587Z,24
2016-12-28T19:12:07.501Z,26
2016-12-28T19:14:12.410Z,25
2016-12-28T19:16:07.206Z,24
2016-12-28T19:18:07.207Z,26
2016-12-28T19:20:14.756Z,24
2016-12-28T19:22:09.144Z,24
2016-12-28T19:24:06.849Z,25
2016-12-28T19:26:11.945Z,25
2016-12-28T19:28:09.250Z,25
2016-12-28T19:30:06.899Z,25
2016-12-28T19:32:06.781Z,25
2016-12-28T19:34:09.063Z,25
2016-12-28T19:36:07.275Z,25
2016-12-28T19:38:07.296Z,25
2016-12-28T19:40:07.095Z,25
2016-12-28T19:42:11.998Z,25
2016-12-28T19:44:06.903Z,25
2016-12-28T19:46:06.644Z,24
2016-12-28T19:48:10.940Z,25
2016-12-28T19:50:07.120Z,24
2016-12-28T19:52:09.723Z,25
2016-12-28T19:54:06.445Z,24
2016-12-28T19:56:07.456Z,25
2016-12-28T19:58:07.203Z,25
2016-12-28T20:00:06.968Z,24
2016-12-28T20:02:09.431Z,25
2016-12-28T20:04:07.189Z,24
2016-12-28T20:06:06.948Z,25
2016-12-28T20:08:09.540Z,25
2016-12-28T20:10:07.216Z,24
2016-12-28T20:12:06.972Z,25
2016-12-28T20:14:07.052Z,25
2016-12-28T20:16:11.813Z,24
2016-12-28T20:18:14.342Z,24
2016-12-28T20:20:09.931Z,25
2016-12-28T20:22:09.168Z,25
2016-12-28T20:24:09.880Z,25
2016-12-28T20:26:06.889Z,24
2016-12-28T20:28:14.173Z,24
2016-12-28T20:30:06.945Z,24
2016-12-28T20:32:06.823Z,25
2016-12-28T20:34:06.573Z,24
2016-12-28T20:36:07.272Z,25
2016-12-28T20:38:09.639Z,25
2016-12-28T20:40:07.729Z,24
2016-12-28T20:42:08.984Z,25
2016-12-28T20:44:09.417Z,24
2016-12-28T20:46:09.676Z,24
2016-12-28T20:48:07.453Z,24
2016-12-28T20:50:07.220Z,21
2016-12-28T20:52:06.888Z,25
2016-12-28T20:54:06.551Z,25
2016-12-28T20:56:09.819Z,25
2016-12-28T20:58:06.583Z,25
2016-12-28T21:00:07.282Z,25
2016-12-28T21:02:07.193Z,25
2016-12-28T21:04:06.889Z,25
2016-12-28T21:06:06.628Z,25
2016-12-28T21:08:07.325Z,25
2016-12-28T21:10:19.624Z,24
2016-12-28T21:12:12.528Z,24
2016-12-28T21:14:07.600Z,24
2016-12-28T21:16:09.826Z,25
2016-12-28T21:18:06.774Z,24
2016-12-28T21:20:06.517Z,25
2016-12-28T21:22:07.287Z,25
2016-12-28T21:24:07.065Z,26
2016-12-28T21:26:09.429Z,25
2016-12-28T21:28:10.060Z,24
2016-12-28T21:30:14.355Z,24
2016-12-28T21:32:09.745Z,23
2016-12-28T21:34:06.596Z,25
2016-12-28T21:36:07.312Z,25
2016-12-28T21:38:07.355Z,25
2016-12-28T21:40:09.600Z,25
2016-12-28T21:42:07.320Z,24
2016-12-28T21:44:07.349Z,25
2016-12-28T21:46:09.823Z,25
2016-12-28T21:48:06.627Z,24
2016-12-28T21:50:07.497Z,25
2016-12-28T21:52:08.939Z,25
2016-12-28T21:54:06.681Z,25
2016-12-28T21:56:07.708Z,25
2016-12-28T21:58:06.430Z,24
2016-12-28T22:00:07.546Z,25
2016-12-28T22:02:07.283Z,25
2016-12-28T22:04:09.646Z,25
2016-12-28T22:06:07.362Z,24
2016-12-28T22:08:10.031Z,25
2016-12-28T22:10:09.282Z,24
2016-12-28T22:12:06.980Z,24
2016-12-28T22:14:09.278Z,24
2016-12-28T22:16:07.181Z,24
2016-12-28T22:18:07.121Z,24
2016-12-28T22:20:09.573Z,24
2016-12-28T22:22:08.297Z,24
2016-12-28T22:24:07.028Z,24
2016-12-28T22:26:07.041Z,24
2016-12-28T22:28:06.804Z,24
2016-12-28T22:30:09.073Z,24
2016-12-28T22:32:12.643Z,24
2016-12-28T22:34:07.311Z,23
2016-12-28T22:36:09.488Z,24
2016-12-28T22:38:07.187Z,24
2016-12-28T22:40:06.959Z,25
2016-12-28T22:42:06.754Z,24
2016-12-28T22:44:06.505Z,24
2016-12-28T22:46:07.487Z,24
2016-12-28T22:48:07.511Z,24
2016-12-28T22:50:07.650Z,24
2016-12-28T22:52:07.400Z,24
2016-12-28T22:54:09.619Z,24
2016-12-28T22:56:07.679Z,24
2016-12-28T22:58:07.420Z,24
2016-12-28T23:00:09.615Z,24
2016-12-28T23:02:07.398Z,24
2016-12-28T23:04:07.485Z,24
2016-12-28T23:06:09.871Z,24
2016-12-28T23:08:06.959Z,23
2016-12-28T23:10:06.627Z,24
2016-12-28T23:12:07.377Z,24
2016-12-28T23:14:09.963Z,24
2016-12-28T23:16:06.702Z,24
2016-12-28T23:18:06.611Z,24
2016-12-28T23:20:07.715Z,24
2016-12-28T23:22:06.605Z,24
2016-12-28T23:24:07.411Z,24
2016-12-28T23:26:07.242Z,24
2016-12-28T23:28:06.955Z,24
2016-12-28T23:30:09.176Z,24
2016-12-28T23:32:09.799Z,24
2016-12-28T23:34:06.507Z,24
2016-12-28T23:36:07.225Z,24
2016-12-28T23:38:07.130Z,24
2016-12-28T23:40:11.956Z,24
2016-12-28T23:42:09.237Z,24
2016-12-28T23:44:07.060Z,24
2016-12-28T23:46:09.340Z,24
2016-12-28T23:48:07.087Z,23
2016-12-28T23:50:09.363Z,24
2016-12-28T23:52:07.394Z,23
2016-12-28T23:54:12.160Z,24
2016-12-28T23:56:06.967Z,24
2016-12-28T23:58:09.255Z,24
